createdAt,value
2023-04-29T00:00:36.691Z,89.98
2023-04-29T00:01:27.464Z,89.89
2023-04-29T00:02:18.292Z,89.89
2023-04-29T00:03:09.189Z,89.68
2023-04-29T00:04:00.206Z,89.68
2023-04-29T00:04:51.250Z,89.68
2023-04-29T00:05:42.115Z,89.58
2023-04-29T00:06:33.074Z,89.58
2023-04-29T00:07:23.872Z,89.58
2023-04-29T00:08:14.661Z,89.58
2023-04-29T00:09:05.468Z,89.58
2023-04-29T00:09:56.490Z,89.58
2023-04-29T00:10:47.270Z,89.58
2023-04-29T00:11:38.059Z,89.68
2023-04-29T00:12:28.854Z,89.68
2023-04-29T00:13:19.648Z,89.68
2023-04-29T00:14:10.463Z,89.89
2023-04-29T00:15:01.254Z,90.03
2023-04-29T00:15:52.027Z,90.03
2023-04-29T00:16:42.884Z,90.03
2023-04-29T00:17:33.689Z,90.13
2023-04-29T00:18:24.473Z,90.23
2023-04-29T00:19:15.254Z,90.44
2023-04-29T00:20:06.069Z,90.54
2023-04-29T00:20:56.845Z,90.75
2023-04-29T00:21:47.622Z,90.75
2023-04-29T00:22:38.417Z,90.75
2023-04-29T00:23:29.198Z,90.64
2023-04-29T00:24:19.999Z,90.64
2023-04-29T00:25:10.792Z,90.75
2023-04-29T00:26:01.572Z,90.84
2023-04-29T00:26:52.341Z,90.84
2023-04-29T00:27:43.125Z,90.95
2023-04-29T00:28:33.919Z,91.05
2023-04-29T00:29:24.696Z,91.16
2023-04-29T00:30:15.481Z,91.16
2023-04-29T00:31:06.300Z,91.16
2023-04-29T00:31:57.052Z,91.16
2023-04-29T00:32:47.850Z,91.16
2023-04-29T00:33:38.620Z,91.16
2023-04-29T00:34:29.406Z,91.26
2023-04-29T00:35:20.304Z,91.36
2023-04-29T00:36:11.036Z,91.26
2023-04-29T00:37:01.818Z,91.16
2023-04-29T00:37:52.626Z,91.05
2023-04-29T00:38:43.435Z,90.95
2023-04-29T00:39:34.229Z,91.16
2023-04-29T00:40:25.028Z,91.16
2023-04-29T00:41:15.774Z,91.16
2023-04-29T00:42:06.571Z,91.05
2023-04-29T00:42:57.378Z,91.05
2023-04-29T00:43:48.126Z,90.95
2023-04-29T00:44:38.937Z,91.05
2023-04-29T00:45:29.689Z,91.16
2023-04-29T00:46:20.503Z,91.36
2023-04-29T00:47:11.288Z,91.46
2023-04-29T00:48:02.103Z,91.46
2023-04-29T00:48:52.868Z,91.46
2023-04-29T00:49:43.675Z,91.36
2023-04-29T00:50:34.458Z,91.46
2023-04-29T00:51:25.209Z,91.56
2023-04-29T00:52:15.999Z,91.56
2023-04-29T00:53:06.794Z,91.36
2023-04-29T00:53:57.592Z,91.36
2023-04-29T00:54:48.366Z,91.26
2023-04-29T00:55:39.157Z,91.36
2023-04-29T00:56:29.965Z,91.36
2023-04-29T00:57:20.737Z,91.46
2023-04-29T00:58:11.526Z,91.46
2023-04-29T00:59:02.319Z,91.46
2023-04-29T00:59:53.394Z,91.36
2023-04-29T01:00:44.239Z,91.36
2023-04-29T01:01:35.089Z,91.36
2023-04-29T01:02:25.908Z,91.36
2023-04-29T01:03:16.822Z,91.46
2023-04-29T01:04:07.883Z,91.46
2023-04-29T01:04:58.842Z,91.46
2023-04-29T01:05:49.591Z,91.36
2023-04-29T01:06:40.380Z,91.16
2023-04-29T01:07:31.160Z,91.05
2023-04-29T01:08:21.941Z,90.95
2023-04-29T01:09:12.719Z,90.95
2023-04-29T01:10:03.554Z,90.95
2023-04-29T01:10:54.286Z,90.95
2023-04-29T01:11:45.072Z,91.05
2023-04-29T01:12:35.894Z,90.95
2023-04-29T01:13:26.697Z,90.95
2023-04-29T01:14:17.484Z,90.95
2023-04-29T01:15:08.280Z,91.05
2023-04-29T01:15:59.105Z,91.16
2023-04-29T01:16:49.848Z,91.26
2023-04-29T01:17:40.732Z,91.26
2023-04-29T01:18:31.458Z,91.36
2023-04-29T01:19:22.249Z,91.46
2023-04-29T01:20:13.044Z,91.36
2023-04-29T01:21:03.889Z,91.26
2023-04-29T01:21:54.606Z,91.36
2023-04-29T01:22:45.399Z,91.36
2023-04-29T01:23:36.180Z,91.46
2023-04-29T01:24:26.987Z,91.46
2023-04-29T01:25:17.754Z,91.36
2023-04-29T01:26:08.530Z,91.26
2023-04-29T01:26:59.311Z,91.26
2023-04-29T01:27:50.090Z,91.26
2023-04-29T01:28:40.875Z,91.36
2023-04-29T01:29:31.651Z,91.46
2023-04-29T01:30:22.453Z,91.56
2023-04-29T01:31:13.235Z,91.56
2023-04-29T01:32:04.023Z,91.56
2023-04-29T01:32:54.833Z,91.46
2023-04-29T01:33:45.603Z,91.36
2023-04-29T01:34:36.410Z,91.36
2023-04-29T01:35:27.187Z,91.26
2023-04-29T01:36:17.976Z,91.36
2023-04-29T01:37:08.756Z,91.26
2023-04-29T01:37:59.533Z,91.36
2023-04-29T01:38:50.321Z,91.36
2023-04-29T01:39:41.118Z,91.36
2023-04-29T01:40:31.902Z,91.36
2023-04-29T01:41:22.693Z,91.36
2023-04-29T01:42:13.481Z,91.46
2023-04-29T01:43:04.292Z,91.56
2023-04-29T01:43:55.061Z,91.56
2023-04-29T01:44:45.851Z,91.56
2023-04-29T01:45:36.667Z,91.46
2023-04-29T01:46:27.502Z,91.46
2023-04-29T01:47:18.233Z,91.46
2023-04-29T01:48:09.008Z,91.56
2023-04-29T01:48:59.778Z,91.46
2023-04-29T01:49:50.819Z,91.36
2023-04-29T01:50:41.809Z,91.36
2023-04-29T01:51:32.617Z,91.36
2023-04-29T01:52:23.391Z,91.36
2023-04-29T01:53:14.172Z,91.26
2023-04-29T01:54:04.960Z,91.26
2023-04-29T01:54:55.782Z,91.26
2023-04-29T01:55:46.555Z,91.26
2023-04-29T01:56:37.330Z,91.05
2023-04-29T01:57:28.137Z,90.95
2023-04-29T01:58:18.890Z,90.95
2023-04-29T01:59:09.675Z,90.95
2023-04-29T02:00:00.471Z,90.95
2023-04-29T02:00:51.298Z,91.05
2023-04-29T02:01:42.075Z,91.05
2023-04-29T02:02:32.893Z,91.05
2023-04-29T02:03:23.741Z,91.05
2023-04-29T02:04:14.566Z,91.05
2023-04-29T02:05:05.323Z,91.05
2023-04-29T02:05:56.121Z,91.05
2023-04-29T02:06:46.894Z,91.05
2023-04-29T02:07:37.670Z,91.05
2023-04-29T02:08:28.479Z,91.05
2023-04-29T02:09:19.267Z,91.05
2023-04-29T02:10:10.032Z,91.05
2023-04-29T02:11:00.832Z,91.05
2023-04-29T02:11:51.614Z,91.16
2023-04-29T02:12:42.397Z,91.05
2023-04-29T02:13:33.191Z,91.05
2023-04-29T02:14:23.956Z,91.05
2023-04-29T02:15:14.769Z,91.16
2023-04-29T02:16:05.551Z,91.16
2023-04-29T02:16:56.342Z,91.16
2023-04-29T02:17:47.192Z,91.16
2023-04-29T02:18:37.958Z,91.16
2023-04-29T02:19:28.722Z,91.16
2023-04-29T02:20:19.522Z,91.05
2023-04-29T02:21:10.320Z,90.95
2023-04-29T02:22:01.126Z,90.95
2023-04-29T02:22:51.877Z,90.84
2023-04-29T02:23:42.675Z,90.84
2023-04-29T02:24:33.469Z,90.84
2023-04-29T02:25:24.218Z,90.89
2023-04-29T02:26:14.998Z,90.95
2023-04-29T02:27:05.812Z,90.95
2023-04-29T02:27:56.581Z,91.05
2023-04-29T02:28:47.367Z,90.95
2023-04-29T02:29:38.145Z,90.95
2023-04-29T02:30:29.155Z,90.84
2023-04-29T02:31:19.995Z,90.75
2023-04-29T02:32:10.766Z,90.75
2023-04-29T02:33:01.593Z,90.79
2023-04-29T02:33:52.370Z,90.89
2023-04-29T02:34:43.160Z,90.89
2023-04-29T02:35:33.941Z,90.99
2023-04-29T02:36:24.738Z,90.89
2023-04-29T02:37:15.507Z,90.89
2023-04-29T02:38:06.300Z,90.79
2023-04-29T02:38:57.089Z,90.79
2023-04-29T02:39:47.842Z,90.79
2023-04-29T02:40:38.664Z,90.69
2023-04-29T02:41:29.466Z,90.69
2023-04-29T02:42:20.236Z,90.79
2023-04-29T02:43:11.018Z,90.89
2023-04-29T02:44:01.832Z,90.99
2023-04-29T02:44:52.598Z,90.99
2023-04-29T02:45:43.501Z,91.09
2023-04-29T02:46:34.280Z,91.09
2023-04-29T02:47:25.106Z,91.20
2023-04-29T02:48:15.965Z,91.30
2023-04-29T02:49:06.686Z,91.40
2023-04-29T02:49:57.476Z,91.30
2023-04-29T02:50:48.266Z,91.20
2023-04-29T02:51:39.063Z,91.20
2023-04-29T02:52:29.882Z,91.09
2023-04-29T02:53:20.635Z,91.20
2023-04-29T02:54:11.412Z,91.20
2023-04-29T02:55:02.198Z,91.09
2023-04-29T02:55:52.982Z,91.09
2023-04-29T02:56:43.758Z,91.09
2023-04-29T02:57:34.551Z,91.09
2023-04-29T02:58:25.329Z,91.09
2023-04-29T02:59:16.102Z,91.09
2023-04-29T03:00:06.899Z,91.09
2023-04-29T03:00:57.705Z,91.09
2023-04-29T03:01:48.481Z,90.99
2023-04-29T03:02:39.313Z,90.89
2023-04-29T03:03:30.028Z,90.79
2023-04-29T03:04:20.808Z,90.79
2023-04-29T03:05:11.353Z,90.89
2023-04-29T03:06:02.059Z,90.89
2023-04-29T03:06:52.752Z,90.79
2023-04-29T03:07:43.545Z,90.79
2023-04-29T03:08:34.274Z,90.89
2023-04-29T03:09:25.047Z,90.89
2023-04-29T03:10:15.805Z,90.89
2023-04-29T03:11:06.569Z,90.89
2023-04-29T03:11:57.331Z,90.89
2023-04-29T03:12:48.087Z,90.89
2023-04-29T03:13:38.846Z,90.99
2023-04-29T03:14:29.601Z,90.89
2023-04-29T03:15:20.389Z,90.99
2023-04-29T03:16:11.208Z,91.09
2023-04-29T03:17:01.986Z,91.20
2023-04-29T03:17:52.792Z,91.30
2023-04-29T03:18:43.548Z,91.20
2023-04-29T03:19:34.425Z,91.20
2023-04-29T03:20:25.280Z,91.09
2023-04-29T03:21:16.150Z,91.09
2023-04-29T03:22:07.028Z,91.20
2023-04-29T03:22:57.920Z,91.20
2023-04-29T03:23:48.776Z,91.20
2023-04-29T03:24:39.558Z,91.20
2023-04-29T03:25:30.326Z,91.09
2023-04-29T03:26:21.206Z,90.89
2023-04-29T03:27:11.961Z,90.69
2023-04-29T03:28:02.979Z,90.69
2023-04-29T03:28:53.832Z,90.89
2023-04-29T03:29:44.910Z,90.89
2023-04-29T03:30:36.378Z,90.79
2023-04-29T03:31:26.727Z,90.79
2023-04-29T03:32:17.604Z,90.69
2023-04-29T03:33:08.696Z,90.69
2023-04-29T03:33:59.441Z,90.58
2023-04-29T03:34:50.369Z,90.48
2023-04-29T03:35:41.246Z,90.48
2023-04-29T03:36:32.110Z,90.48
2023-04-29T03:37:23.009Z,90.58
2023-04-29T03:38:13.901Z,90.48
2023-04-29T03:39:04.745Z,90.58
2023-04-29T03:39:55.619Z,90.58
2023-04-29T03:40:46.527Z,90.58
2023-04-29T03:41:37.416Z,90.58
2023-04-29T03:42:28.306Z,90.69
2023-04-29T03:43:19.199Z,90.69
2023-04-29T03:44:10.060Z,90.69
2023-04-29T03:45:00.940Z,90.58
2023-04-29T03:45:51.878Z,90.58
2023-04-29T03:46:42.861Z,90.69
2023-04-29T03:47:33.728Z,90.69
2023-04-29T03:48:24.569Z,90.69
2023-04-29T03:49:15.438Z,90.69
2023-04-29T03:50:06.320Z,90.69
2023-04-29T03:50:57.198Z,90.69
2023-04-29T03:51:48.096Z,90.69
2023-04-29T03:52:38.978Z,90.69
2023-04-29T03:53:29.892Z,90.69
2023-04-29T03:54:20.766Z,90.79
2023-04-29T03:55:11.669Z,90.69
2023-04-29T03:56:02.514Z,90.79
2023-04-29T03:56:53.720Z,90.89
2023-04-29T03:57:44.235Z,90.99
2023-04-29T03:58:35.158Z,90.99
2023-04-29T03:59:26.048Z,90.99
2023-04-29T04:00:16.919Z,90.99
2023-04-29T04:01:07.800Z,90.99
2023-04-29T04:01:58.803Z,91.03
2023-04-29T04:02:49.858Z,90.99
2023-04-29T04:03:40.935Z,91.03
2023-04-29T04:04:32.096Z,91.03
2023-04-29T04:05:23.040Z,91.14
2023-04-29T04:06:13.912Z,91.14
2023-04-29T04:07:04.803Z,91.03
2023-04-29T04:07:55.674Z,91.03
2023-04-29T04:08:46.561Z,91.03
2023-04-29T04:09:37.425Z,91.03
2023-04-29T04:10:28.325Z,91.03
2023-04-29T04:11:19.181Z,91.03
2023-04-29T04:12:10.071Z,90.93
2023-04-29T04:13:00.928Z,90.83
2023-04-29T04:13:51.824Z,90.93
2023-04-29T04:14:42.716Z,90.93
2023-04-29T04:15:33.617Z,90.83
2023-04-29T04:16:24.540Z,90.93
2023-04-29T04:17:15.445Z,90.93
2023-04-29T04:18:06.432Z,91.14
2023-04-29T04:18:57.308Z,91.24
2023-04-29T04:19:48.218Z,91.24
2023-04-29T04:20:39.136Z,91.14
2023-04-29T04:21:30.015Z,91.14
2023-04-29T04:22:20.914Z,91.24
2023-04-29T04:23:11.800Z,91.24
2023-04-29T04:24:02.772Z,91.14
2023-04-29T04:24:53.587Z,91.14
2023-04-29T04:25:44.477Z,91.14
2023-04-29T04:26:35.400Z,91.14
2023-04-29T04:27:26.311Z,91.14
2023-04-29T04:28:17.209Z,91.03
2023-04-29T04:29:08.118Z,90.93
2023-04-29T04:29:59.020Z,90.93
2023-04-29T04:30:49.917Z,90.93
2023-04-29T04:31:40.847Z,90.83
2023-04-29T04:32:31.763Z,90.73
2023-04-29T04:33:22.628Z,90.62
2023-04-29T04:34:13.540Z,90.62
2023-04-29T04:35:04.455Z,90.73
2023-04-29T04:35:55.379Z,90.83
2023-04-29T04:36:46.262Z,91.03
2023-04-29T04:37:37.190Z,90.93
2023-04-29T04:38:28.108Z,90.97
2023-04-29T04:39:19.032Z,90.73
2023-04-29T04:40:09.925Z,90.73
2023-04-29T04:41:00.848Z,90.87
2023-04-29T04:41:51.758Z,90.77
2023-04-29T04:42:42.673Z,90.77
2023-04-29T04:43:33.581Z,90.77
2023-04-29T04:44:24.520Z,90.77
2023-04-29T04:45:15.399Z,90.77
2023-04-29T04:46:06.349Z,90.77
2023-04-29T04:46:57.238Z,90.77
2023-04-29T04:47:48.194Z,90.77
2023-04-29T04:48:39.040Z,90.77
2023-04-29T04:49:29.946Z,90.77
2023-04-29T04:50:20.859Z,90.77
2023-04-29T04:51:11.785Z,90.77
2023-04-29T04:52:02.710Z,90.67
2023-04-29T04:52:53.648Z,90.67
2023-04-29T04:53:44.552Z,90.56
2023-04-29T04:54:35.470Z,90.56
2023-04-29T04:55:26.406Z,90.56
2023-04-29T04:56:17.307Z,90.67
2023-04-29T04:57:08.211Z,90.67
2023-04-29T04:57:59.124Z,90.56
2023-04-29T04:58:50.036Z,90.46
2023-04-29T04:59:40.929Z,90.46
2023-04-29T05:00:31.840Z,90.46
2023-04-29T05:01:22.758Z,90.56
2023-04-29T05:02:13.719Z,90.67
2023-04-29T05:03:04.757Z,90.77
2023-04-29T05:03:55.742Z,90.87
2023-04-29T05:04:46.715Z,90.87
2023-04-29T05:05:37.649Z,90.87
2023-04-29T05:06:28.554Z,90.87
2023-04-29T05:07:19.485Z,90.87
2023-04-29T05:08:10.376Z,90.77
2023-04-29T05:09:01.268Z,90.67
2023-04-29T05:09:52.339Z,90.67
2023-04-29T05:10:44.563Z,90.67
2023-04-29T05:11:34.320Z,90.67
2023-04-29T05:12:25.232Z,90.56
2023-04-29T05:13:16.144Z,90.46
2023-04-29T05:14:07.038Z,90.46
2023-04-29T05:14:57.954Z,90.46
2023-04-29T05:15:48.880Z,90.36
2023-04-29T05:16:39.825Z,90.36
2023-04-29T05:17:30.739Z,90.26
2023-04-29T05:18:21.643Z,90.36
2023-04-29T05:19:12.549Z,90.56
2023-04-29T05:20:03.519Z,90.67
2023-04-29T05:20:54.381Z,90.67
2023-04-29T05:21:45.294Z,90.67
2023-04-29T05:22:36.193Z,90.56
2023-04-29T05:23:27.184Z,90.46
2023-04-29T05:24:18.049Z,90.36
2023-04-29T05:25:09.041Z,90.26
2023-04-29T05:25:59.894Z,90.16
2023-04-29T05:26:50.776Z,90.16
2023-04-29T05:27:41.693Z,90.16
2023-04-29T05:28:32.618Z,90.16
2023-04-29T05:29:23.532Z,89.95
2023-04-29T05:30:14.449Z,89.95
2023-04-29T05:31:05.393Z,89.95
2023-04-29T05:31:56.272Z,89.95
2023-04-29T05:32:47.265Z,89.84
2023-04-29T05:33:38.148Z,89.84
2023-04-29T05:34:29.054Z,89.75
2023-04-29T05:35:19.963Z,89.64
2023-04-29T05:36:10.900Z,89.54
2023-04-29T05:37:01.793Z,89.43
2023-04-29T05:37:52.721Z,89.33
2023-04-29T05:38:43.614Z,89.33
2023-04-29T05:39:34.511Z,89.33
2023-04-29T05:40:25.455Z,89.33
2023-04-29T05:41:16.348Z,89.33
2023-04-29T05:42:07.236Z,89.23
2023-04-29T05:42:58.192Z,89.29
2023-04-29T05:43:49.113Z,89.19
2023-04-29T05:44:40.023Z,89.09
2023-04-29T05:45:30.912Z,88.88
2023-04-29T05:46:21.860Z,88.78
2023-04-29T05:47:12.777Z,88.78
2023-04-29T05:48:03.726Z,88.68
2023-04-29T05:48:54.597Z,88.68
2023-04-29T05:49:45.508Z,88.78
2023-04-29T05:50:36.424Z,88.78
2023-04-29T05:51:27.333Z,88.88
2023-04-29T05:52:18.271Z,88.78
2023-04-29T05:53:09.161Z,88.68
2023-04-29T05:54:00.113Z,88.57
2023-04-29T05:54:50.994Z,88.47
2023-04-29T05:55:41.917Z,88.57
2023-04-29T05:56:32.815Z,88.78
2023-04-29T05:57:23.712Z,88.88
2023-04-29T05:58:14.626Z,88.88
2023-04-29T05:59:05.537Z,88.88
2023-04-29T05:59:56.455Z,88.98
2023-04-29T06:00:47.358Z,88.98
2023-04-29T06:01:38.255Z,88.88
2023-04-29T06:02:29.266Z,88.78
2023-04-29T06:03:20.245Z,88.68
2023-04-29T06:04:11.385Z,88.47
2023-04-29T06:05:02.828Z,88.47
2023-04-29T06:05:53.349Z,88.37
2023-04-29T06:06:44.379Z,88.37
2023-04-29T06:07:35.290Z,88.37
2023-04-29T06:08:26.216Z,88.37
2023-04-29T06:09:26.953Z,88.37
2023-04-29T06:10:09.088Z,88.27
2023-04-29T06:10:58.799Z,88.17
2023-04-29T06:11:49.700Z,88.12
2023-04-29T06:12:40.599Z,88.12
2023-04-29T06:13:31.504Z,88.12
2023-04-29T06:14:22.405Z,88.02
2023-04-29T06:15:13.308Z,87.92
2023-04-29T06:16:04.238Z,87.92
2023-04-29T06:16:55.125Z,87.82
2023-04-29T06:17:46.063Z,87.71
2023-04-29T06:18:36.945Z,87.61
2023-04-29T06:19:27.866Z,87.61
2023-04-29T06:20:18.772Z,87.51
2023-04-29T06:21:09.691Z,87.51
2023-04-29T06:22:00.622Z,87.61
2023-04-29T06:22:51.539Z,87.71
2023-04-29T06:23:42.466Z,87.71
2023-04-29T06:24:33.372Z,87.82
2023-04-29T06:25:24.289Z,87.67
2023-04-29T06:26:15.230Z,87.57
2023-04-29T06:27:06.122Z,87.57
2023-04-29T06:27:57.081Z,87.37
2023-04-29T06:28:47.974Z,87.26
2023-04-29T06:29:38.888Z,87.06
2023-04-29T06:30:29.789Z,86.85
2023-04-29T06:31:22.561Z,86.65
2023-04-29T06:32:11.594Z,86.44
2023-04-29T06:33:02.515Z,86.34
2023-04-29T06:33:53.395Z,86.34
2023-04-29T06:34:44.319Z,86.34
2023-04-29T06:35:35.221Z,86.34
2023-04-29T06:36:26.113Z,86.34
2023-04-29T06:37:17.026Z,86.24
2023-04-29T06:38:07.941Z,86.14
2023-04-29T06:38:58.864Z,85.93
2023-04-29T06:39:49.755Z,85.83
2023-04-29T06:40:40.665Z,85.83
2023-04-29T06:41:31.623Z,85.93
2023-04-29T06:42:22.496Z,85.83
2023-04-29T06:43:13.396Z,85.72
2023-04-29T06:44:04.375Z,85.69
2023-04-29T06:44:55.303Z,85.63
2023-04-29T06:45:46.176Z,85.58
2023-04-29T06:46:37.192Z,85.38
2023-04-29T06:47:28.202Z,85.38
2023-04-29T06:48:19.092Z,85.48
2023-04-29T06:49:10.039Z,85.58
2023-04-29T06:50:00.939Z,85.58
2023-04-29T06:50:51.845Z,85.58
2023-04-29T06:51:42.824Z,85.58
2023-04-29T06:52:33.703Z,85.38
2023-04-29T06:53:24.613Z,85.28
2023-04-29T06:54:15.523Z,85.38
2023-04-29T06:55:06.435Z,85.38
2023-04-29T06:55:57.345Z,85.28
2023-04-29T06:56:48.267Z,85.17
2023-04-29T06:57:39.161Z,85.38
2023-04-29T06:58:30.062Z,85.48
2023-04-29T06:59:20.971Z,85.55
2023-04-29T07:00:11.877Z,85.55
2023-04-29T07:01:02.800Z,85.75
2023-04-29T07:01:53.738Z,85.64
2023-04-29T07:02:44.654Z,85.44
2023-04-29T07:03:35.676Z,85.24
2023-04-29T07:04:26.628Z,85.24
2023-04-29T07:05:17.526Z,85.10
2023-04-29T07:06:08.439Z,84.99
2023-04-29T07:06:59.330Z,85.20
2023-04-29T07:07:50.234Z,85.30
2023-04-29T07:08:41.144Z,85.20
2023-04-29T07:09:32.087Z,84.79
2023-04-29T07:10:22.965Z,84.58
2023-04-29T07:11:13.872Z,84.17
2023-04-29T07:12:04.811Z,84.07
2023-04-29T07:12:55.695Z,83.93
2023-04-29T07:13:46.620Z,83.83
2023-04-29T07:14:37.532Z,84.03
2023-04-29T07:15:28.436Z,83.93
2023-04-29T07:16:19.353Z,83.93
2023-04-29T07:17:12.640Z,84.14
2023-04-29T07:18:01.171Z,84.03
2023-04-29T07:18:52.054Z,84.03
2023-04-29T07:19:42.958Z,84.14
2023-04-29T07:20:33.873Z,84.09
2023-04-29T07:21:24.796Z,83.69
2023-04-29T07:22:15.728Z,83.48
2023-04-29T07:23:06.676Z,83.28
2023-04-29T07:23:57.576Z,83.07
2023-04-29T07:24:48.507Z,82.97
2023-04-29T07:25:39.409Z,82.77
2023-04-29T07:26:30.332Z,82.53
2023-04-29T07:27:21.246Z,82.12
2023-04-29T07:28:12.146Z,81.81
2023-04-29T07:29:03.054Z,81.51
2023-04-29T07:29:53.962Z,81.20
2023-04-29T07:30:44.889Z,81.10
2023-04-29T07:31:38.067Z,80.99
2023-04-29T07:32:26.754Z,80.79
2023-04-29T07:33:17.646Z,80.79
2023-04-29T07:34:08.558Z,80.58
2023-04-29T07:34:59.460Z,80.48
2023-04-29T07:35:50.385Z,80.18
2023-04-29T07:36:41.285Z,79.77
2023-04-29T07:37:32.218Z,79.46
2023-04-29T07:38:23.181Z,79.46
2023-04-29T07:39:14.092Z,79.52
2023-04-29T07:40:05.003Z,79.73
2023-04-29T07:40:55.929Z,79.73
2023-04-29T07:41:46.846Z,79.63
2023-04-29T07:42:37.790Z,79.32
2023-04-29T07:43:28.699Z,79.43
2023-04-29T07:44:19.591Z,79.32
2023-04-29T07:45:10.473Z,79.52
2023-04-29T07:46:01.450Z,79.52
2023-04-29T07:46:52.411Z,79.43
2023-04-29T07:47:43.373Z,79.43
2023-04-29T07:48:34.284Z,79.43
2023-04-29T07:49:25.178Z,79.39
2023-04-29T07:50:16.084Z,78.77
2023-04-29T07:51:07.000Z,78.37
2023-04-29T07:51:57.894Z,78.37
2023-04-29T07:52:48.815Z,78.67
2023-04-29T07:53:39.726Z,79.08
2023-04-29T07:54:30.645Z,80.00
2023-04-29T07:55:21.547Z,80.51
2023-04-29T07:56:12.466Z,80.61
2023-04-29T07:57:03.387Z,80.71
2023-04-29T07:57:54.317Z,81.12
2023-04-29T07:58:45.221Z,81.23
2023-04-29T07:59:36.217Z,81.02
2023-04-29T08:00:27.111Z,80.30
2023-04-29T08:01:18.031Z,80.20
2023-04-29T08:02:08.929Z,80.44
2023-04-29T08:02:59.954Z,80.96
2023-04-29T08:03:51.059Z,80.75
2023-04-29T08:04:42.417Z,80.85
2023-04-29T08:05:33.783Z,81.37
2023-04-29T08:06:23.636Z,81.57
2023-04-29T08:07:15.390Z,81.67
2023-04-29T08:08:05.666Z,81.77
2023-04-29T08:08:56.579Z,81.53
2023-04-29T08:09:47.489Z,81.73
2023-04-29T08:10:38.402Z,81.84
2023-04-29T08:11:29.339Z,82.24
2023-04-29T08:12:20.261Z,82.45
2023-04-29T08:13:11.208Z,82.86
2023-04-29T08:14:02.083Z,83.06
2023-04-29T08:14:53.399Z,83.06
2023-04-29T08:15:43.977Z,82.96
2023-04-29T08:16:34.865Z,82.86
2023-04-29T08:17:25.786Z,83.06
2023-04-29T08:18:16.692Z,83.37
2023-04-29T08:19:07.612Z,83.43
2023-04-29T08:19:58.518Z,83.33
2023-04-29T08:20:49.430Z,83.33
2023-04-29T08:21:40.355Z,83.12
2023-04-29T08:22:31.272Z,82.51
2023-04-29T08:23:22.163Z,81.59
2023-04-29T08:24:13.078Z,81.29
2023-04-29T08:25:03.987Z,81.29
2023-04-29T08:25:54.880Z,81.70
2023-04-29T08:26:45.793Z,82.00
2023-04-29T08:27:36.745Z,82.21
2023-04-29T08:28:27.643Z,82.51
2023-04-29T08:29:18.595Z,82.82
2023-04-29T08:30:09.456Z,82.88
2023-04-29T08:31:00.363Z,82.68
2023-04-29T08:31:51.317Z,81.96
2023-04-29T08:32:42.231Z,81.76
2023-04-29T08:33:33.340Z,81.76
2023-04-29T08:34:24.177Z,81.56
2023-04-29T08:35:15.086Z,81.45
2023-04-29T08:36:06.000Z,80.84
2023-04-29T08:36:56.916Z,80.13
2023-04-29T08:37:47.830Z,79.32
2023-04-29T08:38:38.769Z,78.50
2023-04-29T08:39:29.672Z,79.00
2023-04-29T08:40:20.580Z,79.52
2023-04-29T08:41:11.485Z,80.02
2023-04-29T08:42:02.465Z,80.13
2023-04-29T08:42:53.321Z,80.23
2023-04-29T08:43:44.259Z,79.72
2023-04-29T08:44:35.144Z,78.39
2023-04-29T08:45:26.067Z,78.80
2023-04-29T08:46:16.994Z,78.91
2023-04-29T08:47:07.843Z,79.17
2023-04-29T08:47:58.856Z,79.38
2023-04-29T08:48:49.858Z,79.58
2023-04-29T08:49:40.757Z,79.48
2023-04-29T08:50:31.629Z,79.89
2023-04-29T08:51:22.558Z,80.29
2023-04-29T08:52:13.465Z,80.91
2023-04-29T08:53:04.391Z,81.41
2023-04-29T08:53:55.299Z,81.82
2023-04-29T08:54:46.232Z,81.79
2023-04-29T08:55:37.136Z,81.99
2023-04-29T08:56:28.227Z,82.09
2023-04-29T08:57:19.187Z,81.38
2023-04-29T08:58:10.119Z,81.38
2023-04-29T08:59:01.051Z,81.07
2023-04-29T08:59:51.962Z,80.87
2023-04-29T09:00:43.262Z,80.46
2023-04-29T09:01:33.904Z,80.77
2023-04-29T09:02:24.954Z,81.07
2023-04-29T09:03:15.920Z,81.38
2023-04-29T09:04:06.867Z,81.27
2023-04-29T09:04:57.855Z,81.27
2023-04-29T09:05:48.698Z,81.38
2023-04-29T09:06:39.627Z,81.44
2023-04-29T09:07:30.560Z,81.54
2023-04-29T09:08:21.476Z,81.44
2023-04-29T09:09:12.398Z,81.24
2023-04-29T09:10:03.303Z,81.44
2023-04-29T09:10:54.231Z,81.54
2023-04-29T09:11:45.172Z,81.30
2023-04-29T09:12:36.103Z,80.29
2023-04-29T09:13:27.042Z,80.90
2023-04-29T09:14:17.954Z,80.90
2023-04-29T09:15:08.846Z,80.49
2023-04-29T09:15:59.767Z,80.38
2023-04-29T09:16:50.705Z,79.88
2023-04-29T09:17:41.684Z,80.08
2023-04-29T09:18:32.575Z,79.37
2023-04-29T09:19:23.469Z,79.57
2023-04-29T09:20:14.396Z,79.27
2023-04-29T09:21:05.299Z,78.76
2023-04-29T09:21:56.212Z,78.96
2023-04-29T09:22:47.166Z,78.82
2023-04-29T09:23:38.061Z,78.11
2023-04-29T09:24:28.974Z,78.82
2023-04-29T09:25:19.892Z,79.13
2023-04-29T09:26:10.827Z,79.84
2023-04-29T09:27:01.738Z,80.24
2023-04-29T09:27:52.671Z,80.24
2023-04-29T09:28:43.621Z,80.31
2023-04-29T09:29:34.547Z,80.62
2023-04-29T09:30:25.435Z,80.72
2023-04-29T09:31:16.362Z,81.02
2023-04-29T09:32:07.387Z,81.23
2023-04-29T09:32:58.377Z,81.53
2023-04-29T09:33:49.268Z,81.43
2023-04-29T09:34:40.186Z,81.29
2023-04-29T09:35:31.089Z,81.09
2023-04-29T09:36:22.016Z,81.29
2023-04-29T09:37:12.961Z,81.49
2023-04-29T09:38:03.901Z,81.39
2023-04-29T09:38:54.794Z,81.29
2023-04-29T09:39:45.730Z,81.39
2023-04-29T09:40:50.110Z,81.25
2023-04-29T09:41:28.569Z,81.25
2023-04-29T09:42:18.266Z,81.25
2023-04-29T09:43:09.164Z,81.05
2023-04-29T09:44:00.108Z,80.44
2023-04-29T09:44:51.051Z,80.44
2023-04-29T09:45:41.993Z,79.22
2023-04-29T09:46:32.948Z,78.61
2023-04-29T09:47:23.856Z,78.81
2023-04-29T09:48:14.732Z,79.02
2023-04-29T09:49:05.642Z,79.02
2023-04-29T09:49:56.566Z,78.71
2023-04-29T09:50:47.498Z,78.81
2023-04-29T09:51:38.415Z,79.12
2023-04-29T09:52:29.338Z,78.81
2023-04-29T09:53:20.264Z,79.12
2023-04-29T09:54:11.181Z,79.12
2023-04-29T09:55:02.082Z,79.28
2023-04-29T09:55:53.014Z,79.59
2023-04-29T09:56:43.938Z,78.78
2023-04-29T09:57:34.863Z,78.78
2023-04-29T09:58:25.787Z,79.28
2023-04-29T09:59:16.705Z,78.88
2023-04-29T10:00:07.659Z,79.08
2023-04-29T10:00:58.545Z,78.78
2023-04-29T10:01:49.535Z,78.88
2023-04-29T10:02:40.474Z,79.08
2023-04-29T10:03:31.392Z,79.35
2023-04-29T10:04:22.374Z,79.75
2023-04-29T10:05:13.340Z,80.36
2023-04-29T10:06:04.257Z,80.87
2023-04-29T10:06:55.144Z,81.18
2023-04-29T10:07:46.074Z,80.97
2023-04-29T10:08:37.015Z,80.57
2023-04-29T10:09:27.917Z,79.85
2023-04-29T10:10:18.858Z,79.14
2023-04-29T10:11:09.739Z,78.74
2023-04-29T10:12:00.633Z,78.84
2023-04-29T10:12:51.574Z,78.84
2023-04-29T10:13:42.493Z,77.83
2023-04-29T10:14:33.425Z,78.30
2023-04-29T10:15:24.365Z,78.30
2023-04-29T10:16:15.296Z,78.60
2023-04-29T10:17:06.204Z,78.91
2023-04-29T10:17:57.121Z,79.31
2023-04-29T10:18:48.104Z,79.72
2023-04-29T10:19:38.975Z,78.56
2023-04-29T10:20:29.894Z,78.97
2023-04-29T10:21:20.829Z,78.56
2023-04-29T10:22:11.752Z,78.77
2023-04-29T10:23:02.662Z,79.27
2023-04-29T10:23:53.594Z,79.44
2023-04-29T10:24:44.540Z,79.44
2023-04-29T10:25:35.484Z,79.13
2023-04-29T10:26:26.422Z,78.79
2023-04-29T10:27:17.420Z,78.79
2023-04-29T10:28:08.324Z,79.00
2023-04-29T10:28:59.290Z,78.69
2023-04-29T10:29:50.189Z,78.55
2023-04-29T10:30:41.153Z,77.95
2023-04-29T10:31:32.082Z,77.64
2023-04-29T10:32:23.007Z,76.93
2023-04-29T10:33:13.968Z,76.43
2023-04-29T10:34:04.849Z,75.82
2023-04-29T10:34:55.760Z,74.51
2023-04-29T10:35:46.699Z,73.39
2023-04-29T10:36:37.642Z,74.10
2023-04-29T10:37:28.568Z,73.39
2023-04-29T10:38:19.525Z,73.69
2023-04-29T10:39:10.448Z,74.10
2023-04-29T10:40:01.367Z,74.00
2023-04-29T10:40:52.320Z,74.51
2023-04-29T10:41:43.258Z,74.10
2023-04-29T10:42:34.208Z,74.00
2023-04-29T10:43:25.146Z,73.59
2023-04-29T10:44:16.081Z,74.10
2023-04-29T10:45:07.020Z,74.51
2023-04-29T10:45:58.036Z,74.81
2023-04-29T10:46:48.977Z,74.37
2023-04-29T10:47:39.951Z,73.86
2023-04-29T10:48:30.835Z,73.36
2023-04-29T10:49:23.585Z,73.86
2023-04-29T10:50:12.641Z,74.07
2023-04-29T10:51:03.585Z,73.36
2023-04-29T10:51:54.499Z,73.56
2023-04-29T10:52:45.439Z,72.75
2023-04-29T10:53:36.388Z,73.52
2023-04-29T10:54:27.308Z,74.03
2023-04-29T10:55:18.235Z,74.13